sensor_id;sensor_type;location;lat;lon;timestamp;temperature;humidity
65239;SHT30;51827;51.186;6.926;2024-03-23T00:52:43;19.77;54.77
65239;SHT30;51827;51.186;6.926;2024-03-23T00:54:44;19.80;54.77
65239;SHT30;51827;51.186;6.926;2024-03-23T00:55:44;19.80;54.80
65239;SHT30;51827;51.186;6.926;2024-03-23T00:56:44;19.77;54.77
65239;SHT30;51827;51.186;6.926;2024-03-23T00:57:45;19.80;54.72
65239;SHT30;51827;51.186;6.926;2024-03-23T00:58:45;19.80;54.73
65239;SHT30;51827;51.186;6.926;2024-03-23T00:59:45;19.78;54.74
65239;SHT30;51827;51.186;6.926;2024-03-23T01:00:45;19.75;54.70
65239;SHT30;51827;51.186;6.926;2024-03-23T01:01:46;19.78;54.66
65239;SHT30;51827;51.186;6.926;2024-03-23T01:02:46;19.80;54.70
65239;SHT30;51827;51.186;6.926;2024-03-23T01:03:46;19.80;54.69
65239;SHT30;51827;51.186;6.926;2024-03-23T01:04:47;19.77;54.70
65239;SHT30;51827;51.186;6.926;2024-03-23T01:05:47;19.80;54.66
65239;SHT30;51827;51.186;6.926;2024-03-23T01:06:47;19.80;54.63
65239;SHT30;51827;51.186;6.926;2024-03-23T01:07:47;19.77;54.64
65239;SHT30;51827;51.186;6.926;2024-03-23T01:08:48;19.78;54.67
65239;SHT30;51827;51.186;6.926;2024-03-23T01:09:48;19.78;54.65
65239;SHT30;51827;51.186;6.926;2024-03-23T01:10:59;19.80;54.63
65239;SHT30;51827;51.186;6.926;2024-03-23T01:11:59;19.75;54.60
65239;SHT30;51827;51.186;6.926;2024-03-23T01:13:00;19.80;54.58
65239;SHT30;51827;51.186;6.926;2024-03-23T01:14:00;19.78;54.58
65239;SHT30;51827;51.186;6.926;2024-03-23T01:15:00;19.80;54.56
65239;SHT30;51827;51.186;6.926;2024-03-23T01:16:00;19.77;54.63
65239;SHT30;51827;51.186;6.926;2024-03-23T01:17:01;19.78;54.63
65239;SHT30;51827;51.186;6.926;2024-03-23T01:18:01;19.78;54.56
65239;SHT30;51827;51.186;6.926;2024-03-23T01:19:01;19.75;54.59
65239;SHT30;51827;51.186;6.926;2024-03-23T01:20:02;19.77;54.55
65239;SHT30;51827;51.186;6.926;2024-03-23T01:21:02;19.77;54.53
65239;SHT30;51827;51.186;6.926;2024-03-23T01:22:02;19.80;54.49
65239;SHT30;51827;51.186;6.926;2024-03-23T01:23:03;19.80;54.53
65239;SHT30;51827;51.186;6.926;2024-03-23T01:24:03;19.78;54.52
65239;SHT30;51827;51.186;6.926;2024-03-23T01:25:04;19.78;54.48
65239;SHT30;51827;51.186;6.926;2024-03-23T01:26:04;19.78;54.48
65239;SHT30;51827;51.186;6.926;2024-03-23T01:27:04;19.78;54.46
65239;SHT30;51827;51.186;6.926;2024-03-23T01:28:05;19.78;54.47
65239;SHT30;51827;51.186;6.926;2024-03-23T01:29:05;19.78;54.46
65239;SHT30;51827;51.186;6.926;2024-03-23T01:30:06;19.77;54.49
65239;SHT30;51827;51.186;6.926;2024-03-23T01:31:06;19.80;54.46
65239;SHT30;51827;51.186;6.926;2024-03-23T01:32:07;19.80;54.46
65239;SHT30;51827;51.186;6.926;2024-03-23T01:33:07;19.77;54.46
65239;SHT30;51827;51.186;6.926;2024-03-23T01:34:07;19.78;54.45
65239;SHT30;51827;51.186;6.926;2024-03-23T01:35:08;19.80;54.42
65239;SHT30;51827;51.186;6.926;2024-03-23T01:36:08;19.77;54.44
65239;SHT30;51827;51.186;6.926;2024-03-23T01:37:08;19.78;54.42
65239;SHT30;51827;51.186;6.926;2024-03-23T01:38:09;19.78;54.44
65239;SHT30;51827;51.186;6.926;2024-03-23T01:39:09;19.80;54.39
65239;SHT30;51827;51.186;6.926;2024-03-23T01:40:09;19.78;54.42
65239;SHT30;51827;51.186;6.926;2024-03-23T01:41:10;19.77;54.37
65239;SHT30;51827;51.186;6.926;2024-03-23T01:42:10;19.78;54.37
65239;SHT30;51827;51.186;6.926;2024-03-23T01:43:10;19.78;54.41
65239;SHT30;51827;51.186;6.926;2024-03-23T01:44:11;19.77;54.38
65239;SHT30;51827;51.186;6.926;2024-03-23T01:45:11;19.80;54.39
65239;SHT30;51827;51.186;6.926;2024-03-23T01:46:11;19.78;54.35
65239;SHT30;51827;51.186;6.926;2024-03-23T01:47:12;19.77;54.37
65239;SHT30;51827;51.186;6.926;2024-03-23T01:48:12;19.75;54.33
65239;SHT30;51827;51.186;6.926;2024-03-23T01:49:12;19.78;54.32
65239;SHT30;51827;51.186;6.926;2024-03-23T01:50:13;19.80;54.37
65239;SHT30;51827;51.186;6.926;2024-03-23T01:51:14;19.75;54.37
65239;SHT30;51827;51.186;6.926;2024-03-23T01:52:14;19.77;54.31
65239;SHT30;51827;51.186;6.926;2024-03-23T01:53:15;19.77;54.37
65239;SHT30;51827;51.186;6.926;2024-03-23T01:54:15;19.78;54.35
65239;SHT30;51827;51.186;6.926;2024-03-23T01:55:16;19.77;54.37
65239;SHT30;51827;51.186;6.926;2024-03-23T01:56:16;19.77;54.32
65239;SHT30;51827;51.186;6.926;2024-03-23T01:57:17;19.77;54.34
65239;SHT30;51827;51.186;6.926;2024-03-23T01:58:17;19.75;54.29
65239;SHT30;51827;51.186;6.926;2024-03-23T01:59:17;19.77;54.32
65239;SHT30;51827;51.186;6.926;2024-03-23T02:00:18;19.77;54.30
65239;SHT30;51827;51.186;6.926;2024-03-23T02:01:18;19.75;54.26
65239;SHT30;51827;51.186;6.926;2024-03-23T02:02:18;19.75;54.29
65239;SHT30;51827;51.186;6.926;2024-03-23T02:03:23;19.75;54.30
65239;SHT30;51827;51.186;6.926;2024-03-23T02:04:23;19.77;54.27
65239;SHT30;51827;51.186;6.926;2024-03-23T02:05:23;19.78;54.28
65239;SHT30;51827;51.186;6.926;2024-03-23T02:06:24;19.77;54.32
65239;SHT30;51827;51.186;6.926;2024-03-23T02:07:24;19.77;54.27
65239;SHT30;51827;51.186;6.926;2024-03-23T02:08:24;19.74;54.27
65239;SHT30;51827;51.186;6.926;2024-03-23T02:09:25;19.74;54.27
65239;SHT30;51827;51.186;6.926;2024-03-23T02:10:25;19.77;54.29
65239;SHT30;51827;51.186;6.926;2024-03-23T02:11:25;19.77;54.27
65239;SHT30;51827;51.186;6.926;2024-03-23T02:12:26;19.74;54.25
65239;SHT30;51827;51.186;6.926;2024-03-23T02:13:26;19.77;54.28
65239;SHT30;51827;51.186;6.926;2024-03-23T02:14:26;19.74;54.24
65239;SHT30;51827;51.186;6.926;2024-03-23T02:15:26;19.75;54.25
65239;SHT30;51827;51.186;6.926;2024-03-23T02:16:27;19.74;54.22
65239;SHT30;51827;51.186;6.926;2024-03-23T02:17:28;19.73;54.21
65239;SHT30;51827;51.186;6.926;2024-03-23T02:18:29;19.74;54.24
65239;SHT30;51827;51.186;6.926;2024-03-23T02:19:29;19.75;54.22
65239;SHT30;51827;51.186;6.926;2024-03-23T02:20:29;19.74;54.22
65239;SHT30;51827;51.186;6.926;2024-03-23T02:21:29;19.74;54.20
65239;SHT30;51827;51.186;6.926;2024-03-23T02:22:37;19.74;54.21
65239;SHT30;51827;51.186;6.926;2024-03-23T02:23:37;19.75;54.18
65239;SHT30;51827;51.186;6.926;2024-03-23T02:24:37;19.73;54.19
65239;SHT30;51827;51.186;6.926;2024-03-23T02:25:37;19.74;54.16
65239;SHT30;51827;51.186;6.926;2024-03-23T02:26:38;19.73;54.17
65239;SHT30;51827;51.186;6.926;2024-03-23T02:27:38;19.71;54.16
65239;SHT30;51827;51.186;6.926;2024-03-23T02:28:38;19.74;54.13
65239;SHT30;51827;51.186;6.926;2024-03-23T02:29:38;19.74;54.14
65239;SHT30;51827;51.186;6.926;2024-03-23T02:30:39;19.74;54.10
65239;SHT30;51827;51.186;6.926;2024-03-23T02:31:39;19.73;54.10
65239;SHT30;51827;51.186;6.926;2024-03-23T02:32:39;19.74;54.15
65239;SHT30;51827;51.186;6.926;2024-03-23T02:33:39;19.73;54.10
65239;SHT30;51827;51.186;6.926;2024-03-23T02:34:40;19.73;54.10
65239;SHT30;51827;51.186;6.926;2024-03-23T02:35:40;19.73;54.12
65239;SHT30;51827;51.186;6.926;2024-03-23T02:36:40;19.73;54.12
65239;SHT30;51827;51.186;6.926;2024-03-23T02:37:40;19.74;54.11
65239;SHT30;51827;51.186;6.926;2024-03-23T02:38:41;19.73;54.09
65239;SHT30;51827;51.186;6.926;2024-03-23T02:39:41;19.74;54.04
65239;SHT30;51827;51.186;6.926;2024-03-23T02:40:41;19.74;54.05
65239;SHT30;51827;51.186;6.926;2024-03-23T02:41:41;19.74;54.09
65239;SHT30;51827;51.186;6.926;2024-03-23T02:42:42;19.71;54.04
65239;SHT30;51827;51.186;6.926;2024-03-23T02:43:42;19.73;54.10
65239;SHT30;51827;51.186;6.926;2024-03-23T02:44:43;19.73;54.06
65239;SHT30;51827;51.186;6.926;2024-03-23T02:45:43;19.71;54.04
65239;SHT30;51827;51.186;6.926;2024-03-23T02:46:43;19.71;54.01
65239;SHT30;51827;51.186;6.926;2024-03-23T02:47:44;19.73;54.03
65239;SHT30;51827;51.186;6.926;2024-03-23T02:48:44;19.73;54.00
65239;SHT30;51827;51.186;6.926;2024-03-23T02:49:44;19.71;54.03
65239;SHT30;51827;51.186;6.926;2024-03-23T02:50:44;19.71;54.02
65239;SHT30;51827;51.186;6.926;2024-03-23T02:51:45;19.70;54.03
65239;SHT30;51827;51.186;6.926;2024-03-23T02:52:45;19.73;53.98
65239;SHT30;51827;51.186;6.926;2024-03-23T02:53:45;19.73;53.95
65239;SHT30;51827;51.186;6.926;2024-03-23T02:54:46;19.70;53.97
65239;SHT30;51827;51.186;6.926;2024-03-23T02:55:46;19.71;53.93
65239;SHT30;51827;51.186;6.926;2024-03-23T02:56:46;19.73;53.93
65239;SHT30;51827;51.186;6.926;2024-03-23T02:57:46;19.73;53.96
65239;SHT30;51827;51.186;6.926;2024-03-23T02:58:47;19.71;53.94
65239;SHT30;51827;51.186;6.926;2024-03-23T02:59:47;19.73;53.92
65239;SHT30;51827;51.186;6.926;2024-03-23T03:00:47;19.71;53.89
65239;SHT30;51827;51.186;6.926;2024-03-23T03:01:47;19.70;53.92
65239;SHT30;51827;51.186;6.926;2024-03-23T03:02:48;19.70;53.92
65239;SHT30;51827;51.186;6.926;2024-03-23T03:03:48;19.70;53.86
65239;SHT30;51827;51.186;6.926;2024-03-23T03:04:48;19.71;53.91
65239;SHT30;51827;51.186;6.926;2024-03-23T03:05:55;19.70;53.86
65239;SHT30;51827;51.186;6.926;2024-03-23T03:06:55;19.67;53.88
65239;SHT30;51827;51.186;6.926;2024-03-23T03:07:55;19.69;53.88
65239;SHT30;51827;51.186;6.926;2024-03-23T03:08:56;19.74;53.86
65239;SHT30;51827;51.186;6.926;2024-03-23T03:09:56;19.70;53.83
65239;SHT30;51827;51.186;6.926;2024-03-23T03:10:56;19.71;53.81
65239;SHT30;51827;51.186;6.926;2024-03-23T03:11:56;19.71;53.84
65239;SHT30;51827;51.186;6.926;2024-03-23T03:12:57;19.71;53.83
65239;SHT30;51827;51.186;6.926;2024-03-23T03:13:57;19.71;53.79
65239;SHT30;51827;51.186;6.926;2024-03-23T03:14:57;19.71;53.79
65239;SHT30;51827;51.186;6.926;2024-03-23T03:15:57;19.71;53.79
65239;SHT30;51827;51.186;6.926;2024-03-23T03:16:57;19.69;53.78
65239;SHT30;51827;51.186;6.926;2024-03-23T03:17:58;19.70;53.81
65239;SHT30;51827;51.186;6.926;2024-03-23T03:18:58;19.70;53.77
65239;SHT30;51827;51.186;6.926;2024-03-23T03:19:58;19.69;53.77
65239;SHT30;51827;51.186;6.926;2024-03-23T03:20:58;19.69;53.78
65239;SHT30;51827;51.186;6.926;2024-03-23T03:21:59;19.71;53.80
65239;SHT30;51827;51.186;6.926;2024-03-23T03:22:59;19.67;53.76
65239;SHT30;51827;51.186;6.926;2024-03-23T03:23:59;19.69;53.78
65239;SHT30;51827;51.186;6.926;2024-03-23T03:24:59;19.67;53.75
65239;SHT30;51827;51.186;6.926;2024-03-23T03:26:00;19.69;53.78
65239;SHT30;51827;51.186;6.926;2024-03-23T03:27:00;19.67;53.72
65239;SHT30;51827;51.186;6.926;2024-03-23T03:28:00;19.69;53.73
65239;SHT30;51827;51.186;6.926;2024-03-23T03:29:00;19.67;53.73
65239;SHT30;51827;51.186;6.926;2024-03-23T03:30:01;19.69;53.72
65239;SHT30;51827;51.186;6.926;2024-03-23T03:31:02;19.70;53.73
65239;SHT30;51827;51.186;6.926;2024-03-23T03:32:02;19.69;53.67
65239;SHT30;51827;51.186;6.926;2024-03-23T03:33:03;19.69;53.67
65239;SHT30;51827;51.186;6.926;2024-03-23T03:34:03;19.66;53.65
65239;SHT30;51827;51.186;6.926;2024-03-23T03:35:04;19.69;53.68
65239;SHT30;51827;51.186;6.926;2024-03-23T03:36:04;19.70;53.64
65239;SHT30;51827;51.186;6.926;2024-03-23T03:37:04;19.70;53.67
65239;SHT30;51827;51.186;6.926;2024-03-23T03:38:05;19.70;53.63
65239;SHT30;51827;51.186;6.926;2024-03-23T03:39:05;19.70;53.66
65239;SHT30;51827;51.186;6.926;2024-03-23T03:40:05;19.70;53.61
65239;SHT30;51827;51.186;6.926;2024-03-23T03:41:06;19.66;53.61
65239;SHT30;51827;51.186;6.926;2024-03-23T03:42:06;19.70;53.62
65239;SHT30;51827;51.186;6.926;2024-03-23T03:43:07;19.69;53.62
65239;SHT30;51827;51.186;6.926;2024-03-23T03:44:07;19.67;53.65
65239;SHT30;51827;51.186;6.926;2024-03-23T03:45:07;19.70;53.59
65239;SHT30;51827;51.186;6.926;2024-03-23T03:46:07;19.67;53.63
65239;SHT30;51827;51.186;6.926;2024-03-23T03:47:08;19.66;53.62
65239;SHT30;51827;51.186;6.926;2024-03-23T03:48:08;19.67;53.60
65239;SHT30;51827;51.186;6.926;2024-03-23T03:49:08;19.66;53.57
65239;SHT30;51827;51.186;6.926;2024-03-23T03:50:09;19.66;53.56
65239;SHT30;51827;51.186;6.926;2024-03-23T03:51:09;19.67;53.56
65239;SHT30;51827;51.186;6.926;2024-03-23T03:52:09;19.69;53.55
65239;SHT30;51827;51.186;6.926;2024-03-23T03:53:10;19.67;53.59
65239;SHT30;51827;51.186;6.926;2024-03-23T03:54:10;19.69;53.56
65239;SHT30;51827;51.186;6.926;2024-03-23T03:55:14;19.69;53.57
65239;SHT30;51827;51.186;6.926;2024-03-23T03:56:14;19.64;53.60
65239;SHT30;51827;51.186;6.926;2024-03-23T03:57:15;19.67;53.55
65239;SHT30;51827;51.186;6.926;2024-03-23T03:58:15;19.66;53.56
65239;SHT30;51827;51.186;6.926;2024-03-23T03:59:15;19.66;53.58
65239;SHT30;51827;51.186;6.926;2024-03-23T04:00:16;19.66;53.57
65239;SHT30;51827;51.186;6.926;2024-03-23T04:01:16;19.67;53.54
65239;SHT30;51827;51.186;6.926;2024-03-23T04:02:16;19.67;53.52
65239;SHT30;51827;51.186;6.926;2024-03-23T04:03:17;19.66;53.51
65239;SHT30;51827;51.186;6.926;2024-03-23T04:04:17;19.64;53.50
65239;SHT30;51827;51.186;6.926;2024-03-23T04:05:17;19.66;53.48
65239;SHT30;51827;51.186;6.926;2024-03-23T04:06:20;19.66;53.51
65239;SHT30;51827;51.186;6.926;2024-03-23T04:07:21;19.66;53.47
65239;SHT30;51827;51.186;6.926;2024-03-23T04:08:21;19.66;53.51
65239;SHT30;51827;51.186;6.926;2024-03-23T04:09:22;19.66;53.48
65239;SHT30;51827;51.186;6.926;2024-03-23T04:10:22;19.63;53.44
65239;SHT30;51827;51.186;6.926;2024-03-23T04:11:22;19.64;53.48
65239;SHT30;51827;51.186;6.926;2024-03-23T04:12:23;19.67;53.47
65239;SHT30;51827;51.186;6.926;2024-03-23T04:13:24;19.64;53.46
65239;SHT30;51827;51.186;6.926;2024-03-23T04:14:24;19.66;53.46
65239;SHT30;51827;51.186;6.926;2024-03-23T04:15:24;19.66;53.46
65239;SHT30;51827;51.186;6.926;2024-03-23T04:16:28;19.64;53.42
65239;SHT30;51827;51.186;6.926;2024-03-23T04:17:28;19.64;53.42
65239;SHT30;51827;51.186;6.926;2024-03-23T04:18:28;19.67;53.43
65239;SHT30;51827;51.186;6.926;2024-03-23T04:19:29;19.64;53.39
65239;SHT30;51827;51.186;6.926;2024-03-23T04:20:29;19.66;53.42
65239;SHT30;51827;51.186;6.926;2024-03-23T04:21:29;19.64;53.38
65239;SHT30;51827;51.186;6.926;2024-03-23T04:22:29;19.63;53.38
65239;SHT30;51827;51.186;6.926;2024-03-23T04:23:30;19.67;53.41
65239;SHT30;51827;51.186;6.926;2024-03-23T04:24:30;19.66;53.36
65239;SHT30;51827;51.186;6.926;2024-03-23T04:25:30;19.66;53.38
65239;SHT30;51827;51.186;6.926;2024-03-23T04:26:40;19.64;53.42
65239;SHT30;51827;51.186;6.926;2024-03-23T04:27:40;19.63;53.38
65239;SHT30;51827;51.186;6.926;2024-03-23T04:28:41;19.66;53.36
65239;SHT30;51827;51.186;6.926;2024-03-23T04:29:41;19.64;53.38
65239;SHT30;51827;51.186;6.926;2024-03-23T04:30:41;19.63;53.32
65239;SHT30;51827;51.186;6.926;2024-03-23T04:31:41;19.64;53.36
65239;SHT30;51827;51.186;6.926;2024-03-23T04:32:42;19.66;53.34
65239;SHT30;51827;51.186;6.926;2024-03-23T04:33:42;19.67;53.36
65239;SHT30;51827;51.186;6.926;2024-03-23T04:34:43;19.63;53.36
65239;SHT30;51827;51.186;6.926;2024-03-23T04:35:43;19.63;53.30
65239;SHT30;51827;51.186;6.926;2024-03-23T04:36:43;19.66;53.32
65239;SHT30;51827;51.186;6.926;2024-03-23T04:37:43;19.66;53.33
65239;SHT30;51827;51.186;6.926;2024-03-23T04:38:46;19.64;53.35
65239;SHT30;51827;51.186;6.926;2024-03-23T04:39:46;19.63;53.33
65239;SHT30;51827;51.186;6.926;2024-03-23T04:40:55;19.66;53.34
65239;SHT30;51827;51.186;6.926;2024-03-23T04:41:55;19.63;53.30
65239;SHT30;51827;51.186;6.926;2024-03-23T04:42:55;19.63;53.35
65239;SHT30;51827;51.186;6.926;2024-03-23T04:43:56;19.64;53.25
65239;SHT30;51827;51.186;6.926;2024-03-23T04:44:56;19.64;53.29
65239;SHT30;51827;51.186;6.926;2024-03-23T04:45:56;19.66;53.25
65239;SHT30;51827;51.186;6.926;2024-03-23T04:46:57;19.64;53.24
65239;SHT30;51827;51.186;6.926;2024-03-23T04:47:57;19.64;53.29
65239;SHT30;51827;51.186;6.926;2024-03-23T04:48:57;19.63;53.25
65239;SHT30;51827;51.186;6.926;2024-03-23T04:49:58;19.63;53.23
65239;SHT30;51827;51.186;6.926;2024-03-23T04:50:58;19.62;53.29
65239;SHT30;51827;51.186;6.926;2024-03-23T04:51:58;19.64;53.21
65239;SHT30;51827;51.186;6.926;2024-03-23T04:52:59;19.63;53.26
65239;SHT30;51827;51.186;6.926;2024-03-23T04:53:59;19.63;53.24
65239;SHT30;51827;51.186;6.926;2024-03-23T04:54:59;19.63;53.17
65239;SHT30;51827;51.186;6.926;2024-03-23T04:55:59;19.63;53.25
65239;SHT30;51827;51.186;6.926;2024-03-23T04:57:00;19.62;53.18
65239;SHT30;51827;51.186;6.926;2024-03-23T04:58:00;19.63;53.23
65239;SHT30;51827;51.186;6.926;2024-03-23T04:59:00;19.62;53.22
65239;SHT30;51827;51.186;6.926;2024-03-23T05:00:01;19.62;53.21
65239;SHT30;51827;51.186;6.926;2024-03-23T05:01:01;19.64;53.23
65239;SHT30;51827;51.186;6.926;2024-03-23T05:02:04;19.62;53.20
65239;SHT30;51827;51.186;6.926;2024-03-23T05:03:05;19.63;53.20
65239;SHT30;51827;51.186;6.926;2024-03-23T05:04:05;19.62;53.19
65239;SHT30;51827;51.186;6.926;2024-03-23T05:05:05;19.63;53.19
65239;SHT30;51827;51.186;6.926;2024-03-23T05:06:06;19.63;53.15
65239;SHT30;51827;51.186;6.926;2024-03-23T05:07:06;19.60;53.16
65239;SHT30;51827;51.186;6.926;2024-03-23T05:08:06;19.59;53.14
65239;SHT30;51827;51.186;6.926;2024-03-23T05:09:07;19.60;53.14
65239;SHT30;51827;51.186;6.926;2024-03-23T05:10:09;19.60;53.14
65239;SHT30;51827;51.186;6.926;2024-03-23T05:11:09;19.60;53.13
65239;SHT30;51827;51.186;6.926;2024-03-23T05:12:10;19.63;53.11
65239;SHT30;51827;51.186;6.926;2024-03-23T05:13:10;19.62;53.11
65239;SHT30;51827;51.186;6.926;2024-03-23T05:14:13;19.63;53.09
65239;SHT30;51827;51.186;6.926;2024-03-23T05:15:13;19.62;53.01
65239;SHT30;51827;51.186;6.926;2024-03-23T05:16:13;19.57;52.99
65239;SHT30;51827;51.186;6.926;2024-03-23T05:17:14;19.60;52.95
65239;SHT30;51827;51.186;6.926;2024-03-23T05:18:14;19.59;52.98
65239;SHT30;51827;51.186;6.926;2024-03-23T05:19:14;19.59;52.96
65239;SHT30;51827;51.186;6.926;2024-03-23T05:20:14;19.59;52.98
65239;SHT30;51827;51.186;6.926;2024-03-23T05:21:15;19.62;52.97
65239;SHT30;51827;51.186;6.926;2024-03-23T05:22:15;19.59;52.96
65239;SHT30;51827;51.186;6.926;2024-03-23T05:23:15;19.59;52.93
65239;SHT30;51827;51.186;6.926;2024-03-23T05:24:15;19.59;52.93
65239;SHT30;51827;51.186;6.926;2024-03-23T05:25:16;19.60;52.94
65239;SHT30;51827;51.186;6.926;2024-03-23T05:26:16;19.59;52.94
65239;SHT30;51827;51.186;6.926;2024-03-23T05:27:17;19.59;52.90
65239;SHT30;51827;51.186;6.926;2024-03-23T05:28:18;19.62;52.92
65239;SHT30;51827;51.186;6.926;2024-03-23T05:29:18;19.60;52.89
65239;SHT30;51827;51.186;6.926;2024-03-23T05:30:18;19.60;52.86
65239;SHT30;51827;51.186;6.926;2024-03-23T05:31:26;19.60;52.86
65239;SHT30;51827;51.186;6.926;2024-03-23T05:32:26;19.57;52.84
65239;SHT30;51827;51.186;6.926;2024-03-23T05:33:26;19.59;52.84
65239;SHT30;51827;51.186;6.926;2024-03-23T05:34:27;19.59;52.86
65239;SHT30;51827;51.186;6.926;2024-03-23T05:35:27;19.59;52.85
65239;SHT30;51827;51.186;6.926;2024-03-23T05:36:27;19.60;52.81
65239;SHT30;51827;51.186;6.926;2024-03-23T05:37:27;19.57;52.81
65239;SHT30;51827;51.186;6.926;2024-03-23T05:38:28;19.60;52.79
65239;SHT30;51827;51.186;6.926;2024-03-23T05:39:28;19.59;52.85
65239;SHT30;51827;51.186;6.926;2024-03-23T05:40:28;19.59;52.82
65239;SHT30;51827;51.186;6.926;2024-03-23T05:41:29;19.59;52.86
65239;SHT30;51827;51.186;6.926;2024-03-23T05:42:29;19.57;52.81
65239;SHT30;51827;51.186;6.926;2024-03-23T05:43:30;19.57;52.80
65239;SHT30;51827;51.186;6.926;2024-03-23T05:44:30;19.59;52.78
65239;SHT30;51827;51.186;6.926;2024-03-23T05:45:30;19.57;52.76
65239;SHT30;51827;51.186;6.926;2024-03-23T05:46:30;19.60;52.76
65239;SHT30;51827;51.186;6.926;2024-03-23T05:47:31;19.56;52.80
65239;SHT30;51827;51.186;6.926;2024-03-23T05:48:31;19.57;52.76
65239;SHT30;51827;51.186;6.926;2024-03-23T05:49:31;19.57;52.71
65239;SHT30;51827;51.186;6.926;2024-03-23T05:50:32;19.57;52.74
65239;SHT30;51827;51.186;6.926;2024-03-23T05:51:32;19.59;52.74
65239;SHT30;51827;51.186;6.926;2024-03-23T05:52:32;19.57;52.74
65239;SHT30;51827;51.186;6.926;2024-03-23T05:53:32;19.57;52.66
65239;SHT30;51827;51.186;6.926;2024-03-23T05:54:33;19.57;52.67
65239;SHT30;51827;51.186;6.926;2024-03-23T05:55:33;19.56;52.70
65239;SHT30;51827;51.186;6.926;2024-03-23T05:56:33;19.59;52.68
65239;SHT30;51827;51.186;6.926;2024-03-23T05:57:33;19.57;52.68
65239;SHT30;51827;51.186;6.926;2024-03-23T05:58:34;19.59;52.65
65239;SHT30;51827;51.186;6.926;2024-03-23T05:59:34;19.57;52.67
65239;SHT30;51827;51.186;6.926;2024-03-23T06:00:34;19.56;52.66
65239;SHT30;51827;51.186;6.926;2024-03-23T06:01:35;19.57;52.65
65239;SHT30;51827;51.186;6.926;2024-03-23T06:02:35;19.60;52.71
65239;SHT30;51827;51.186;6.926;2024-03-23T06:03:35;19.57;52.69
65239;SHT30;51827;51.186;6.926;2024-03-23T06:04:36;19.54;52.71
65239;SHT30;51827;51.186;6.926;2024-03-23T06:05:37;19.56;52.67
65239;SHT30;51827;51.186;6.926;2024-03-23T06:06:37;19.56;52.69
65239;SHT30;51827;51.186;6.926;2024-03-23T06:07:38;19.57;52.71
65239;SHT30;51827;51.186;6.926;2024-03-23T06:08:38;19.56;52.70
65239;SHT30;51827;51.186;6.926;2024-03-23T06:09:42;19.57;52.71
65239;SHT30;51827;51.186;6.926;2024-03-23T06:10:42;19.57;52.68
65239;SHT30;51827;51.186;6.926;2024-03-23T06:11:42;19.57;52.70
65239;SHT30;51827;51.186;6.926;2024-03-23T06:12:43;19.56;52.74
65239;SHT30;51827;51.186;6.926;2024-03-23T06:13:43;19.57;52.72
65239;SHT30;51827;51.186;6.926;2024-03-23T06:14:43;19.57;52.75
65239;SHT30;51827;51.186;6.926;2024-03-23T06:15:44;19.57;52.72
65239;SHT30;51827;51.186;6.926;2024-03-23T06:16:44;19.57;52.75
65239;SHT30;51827;51.186;6.926;2024-03-23T06:17:44;19.60;52.71
65239;SHT30;51827;51.186;6.926;2024-03-23T06:18:45;19.59;52.72
65239;SHT30;51827;51.186;6.926;2024-03-23T06:19:45;19.59;52.72
65239;SHT30;51827;51.186;6.926;2024-03-23T06:20:45;19.60;52.75
65239;SHT30;51827;51.186;6.926;2024-03-23T06:21:45;19.60;52.75
65239;SHT30;51827;51.186;6.926;2024-03-23T06:22:46;19.60;52.75
65239;SHT30;51827;51.186;6.926;2024-03-23T06:23:46;19.59;52.77
65239;SHT30;51827;51.186;6.926;2024-03-23T06:24:46;19.59;52.79
65239;SHT30;51827;51.186;6.926;2024-03-23T06:25:47;19.60;52.72
65239;SHT30;51827;51.186;6.926;2024-03-23T06:26:47;19.59;52.77
65239;SHT30;51827;51.186;6.926;2024-03-23T06:27:47;19.59;52.77
65239;SHT30;51827;51.186;6.926;2024-03-23T06:28:48;19.60;52.77
65239;SHT30;51827;51.186;6.926;2024-03-23T06:29:48;19.60;52.78
65239;SHT30;51827;51.186;6.926;2024-03-23T06:30:48;19.59;52.77
65239;SHT30;51827;51.186;6.926;2024-03-23T06:31:53;19.60;52.80
65239;SHT30;51827;51.186;6.926;2024-03-23T06:32:53;19.60;52.79
65239;SHT30;51827;51.186;6.926;2024-03-23T06:33:55;19.59;52.80
65239;SHT30;51827;51.186;6.926;2024-03-23T06:34:55;19.60;52.79
65239;SHT30;51827;51.186;6.926;2024-03-23T06:35:55;19.60;52.78
65239;SHT30;51827;51.186;6.926;2024-03-23T06:36:58;19.59;52.79
65239;SHT30;51827;51.186;6.926;2024-03-23T06:37:58;19.60;52.75
65239;SHT30;51827;51.186;6.926;2024-03-23T06:38:58;19.59;52.77
65239;SHT30;51827;51.186;6.926;2024-03-23T06:39:59;19.59;52.78
65239;SHT30;51827;51.186;6.926;2024-03-23T06:41:00;19.57;52.79
65239;SHT30;51827;51.186;6.926;2024-03-23T06:42:02;19.57;52.80
65239;SHT30;51827;51.186;6.926;2024-03-23T06:43:03;19.60;52.76
65239;SHT30;51827;51.186;6.926;2024-03-23T06:44:03;19.59;52.79
65239;SHT30;51827;51.186;6.926;2024-03-23T06:45:04;19.59;52.79
65239;SHT30;51827;51.186;6.926;2024-03-23T06:46:04;19.57;52.79
65239;SHT30;51827;51.186;6.926;2024-03-23T06:47:04;19.63;52.76
65239;SHT30;51827;51.186;6.926;2024-03-23T06:48:05;19.62;52.79
65239;SHT30;51827;51.186;6.926;2024-03-23T06:49:05;19.59;52.79
65239;SHT30;51827;51.186;6.926;2024-03-23T06:50:06;19.62;52.72
65239;SHT30;51827;51.186;6.926;2024-03-23T06:51:06;19.60;52.75
65239;SHT30;51827;51.186;6.926;2024-03-23T06:52:07;19.60;52.76
65239;SHT30;51827;51.186;6.926;2024-03-23T06:53:07;19.62;52.76
65239;SHT30;51827;51.186;6.926;2024-03-23T06:54:07;19.60;52.74
65239;SHT30;51827;51.186;6.926;2024-03-23T06:55:08;19.60;52.73
65239;SHT30;51827;51.186;6.926;2024-03-23T06:56:08;19.59;52.72
65239;SHT30;51827;51.186;6.926;2024-03-23T06:57:08;19.59;52.71
65239;SHT30;51827;51.186;6.926;2024-03-23T06:58:08;19.60;52.76
65239;SHT30;51827;51.186;6.926;2024-03-23T06:59:08;19.60;52.74
65239;SHT30;51827;51.186;6.926;2024-03-23T07:00:09;19.62;52.75
65239;SHT30;51827;51.186;6.926;2024-03-23T07:01:10;19.62;52.74
65239;SHT30;51827;51.186;6.926;2024-03-23T07:02:10;19.60;52.73
65239;SHT30;51827;51.186;6.926;2024-03-23T07:03:10;19.60;52.81
65239;SHT30;51827;51.186;6.926;2024-03-23T07:04:11;19.60;52.91
65239;SHT30;51827;51.186;6.926;2024-03-23T07:05:11;19.62;52.93
65239;SHT30;51827;51.186;6.926;2024-03-23T07:06:11;19.62;52.87
65239;SHT30;51827;51.186;6.926;2024-03-23T07:07:11;19.59;52.84
65239;SHT30;51827;51.186;6.926;2024-03-23T07:08:12;19.60;52.84
65239;SHT30;51827;51.186;6.926;2024-03-23T07:09:12;19.59;52.88
65239;SHT30;51827;51.186;6.926;2024-03-23T07:10:12;19.64;52.91
65239;SHT30;51827;51.186;6.926;2024-03-23T07:11:19;19.60;52.91
65239;SHT30;51827;51.186;6.926;2024-03-23T07:12:19;19.60;52.92
65239;SHT30;51827;51.186;6.926;2024-03-23T07:13:19;19.62;52.91
65239;SHT30;51827;51.186;6.926;2024-03-23T07:14:21;19.62;52.94
65239;SHT30;51827;51.186;6.926;2024-03-23T07:15:21;19.63;52.93